createdAt,value
2023-02-17T00:01:33.452Z,101289.47
2023-02-17T00:04:01.610Z,101291.28
2023-02-17T00:06:30.904Z,101292.97
2023-02-17T00:09:00.330Z,101285.81
2023-02-17T00:11:30.973Z,101292.94
2023-02-17T00:14:00.182Z,101291.13
2023-02-17T00:16:29.729Z,101287.53
2023-02-17T00:19:00.874Z,101282.03
2023-02-17T00:21:31.423Z,101286.44
2023-02-17T00:24:03.103Z,101269.69
2023-02-17T00:26:30.732Z,101261.16
2023-02-17T00:28:59.125Z,101276.78
2023-02-17T00:31:27.143Z,101273.00
2023-02-17T00:33:56.217Z,101271.25
2023-02-17T00:36:25.652Z,101272.03
2023-02-17T00:38:55.983Z,101274.69
2023-02-17T00:41:26.390Z,101271.97
2023-02-17T00:43:54.248Z,101265.69
2023-02-17T00:46:23.888Z,101264.81
2023-02-17T00:48:53.914Z,101267.50
2023-02-17T00:51:22.425Z,101271.03
2023-02-17T00:53:50.716Z,101276.31
2023-02-17T00:56:18.528Z,101261.34
2023-02-17T00:58:48.234Z,101273.66
2023-02-17T01:01:16.313Z,101268.56
2023-02-17T01:03:44.171Z,101281.78
2023-02-17T01:06:27.800Z,101281.88
2023-02-17T01:08:56.131Z,101273.09
2023-02-17T01:11:29.230Z,101266.78
2023-02-17T01:14:00.877Z,101284.72
2023-02-17T01:16:35.148Z,101276.63
2023-02-17T01:19:10.083Z,101276.63
2023-02-17T01:21:38.349Z,101263.41
2023-02-17T01:24:08.320Z,101273.97
2023-02-17T01:26:37.437Z,101272.16
2023-02-17T01:29:07.602Z,101256.25
2023-02-17T01:31:36.159Z,101266.06
2023-02-17T01:34:05.705Z,101264.16
2023-02-17T01:36:33.756Z,101272.16
2023-02-17T01:39:01.517Z,101270.34
2023-02-17T01:41:29.699Z,101262.31
2023-02-17T01:44:21.949Z,101266.69
2023-02-17T01:46:53.152Z,101256.13
2023-02-17T01:49:39.347Z,101256.78
2023-02-17T01:52:15.024Z,101248.84
2023-02-17T01:54:58.180Z,101241.63
2023-02-17T01:57:32.856Z,101232.84
2023-02-17T02:00:00.753Z,101243.44
2023-02-17T02:02:31.021Z,101242.50
2023-02-17T02:05:00.257Z,101255.84
2023-02-17T02:07:34.253Z,101249.56
2023-02-17T02:10:03.650Z,101247.97
2023-02-17T02:12:36.656Z,101245.97
2023-02-17T02:15:24.617Z,101241.41
2023-02-17T02:18:10.297Z,101241.41
2023-02-17T02:21:16.130Z,101238.72
2023-02-17T02:23:59.762Z,101230.72
2023-02-17T02:26:30.545Z,101224.63
2023-02-17T02:29:49.533Z,101229.00
2023-02-17T02:33:03.083Z,101227.19
2023-02-17T02:35:57.904Z,101212.88
2023-02-17T02:39:04.216Z,101218.28
2023-02-17T02:41:50.801Z,101208.59
2023-02-17T02:44:21.499Z,101201.66
2023-02-17T02:47:27.533Z,101222.13
2023-02-17T02:49:55.670Z,101217.09
2023-02-17T02:52:44.166Z,101227.47
2023-02-17T02:56:20.494Z,101220.50
2023-02-17T02:58:58.841Z,101221.28
2023-02-17T03:02:04.078Z,101222.91
2023-02-17T03:04:49.301Z,101212.34
2023-02-17T03:07:26.136Z,101213.06
2023-02-17T03:09:57.754Z,101206.88
2023-02-17T03:12:27.103Z,101206.78
2023-02-17T03:15:08.385Z,101204.00
2023-02-17T03:17:36.295Z,101206.09
2023-02-17T03:20:06.033Z,101202.47
2023-02-17T03:22:40.677Z,101206.16
2023-02-17T03:25:09.210Z,101206.22
2023-02-17T03:27:37.433Z,101193.75
2023-02-17T03:30:06.536Z,101192.91
2023-02-17T03:32:34.573Z,101191.09
2023-02-17T03:35:02.997Z,101192.91
2023-02-17T03:37:31.251Z,101189.53
2023-02-17T03:39:59.218Z,101193.13
2023-02-17T03:42:27.021Z,101191.41
2023-02-17T03:44:54.762Z,101188.72
2023-02-17T03:47:22.570Z,101196.75
2023-02-17T03:49:52.178Z,101189.81
2023-02-17T03:52:20.011Z,101182.97
2023-02-17T03:54:47.797Z,101206.00
2023-02-17T03:57:16.010Z,101193.72
2023-02-17T03:59:43.762Z,101199.91
2023-02-17T04:02:11.603Z,101201.81
2023-02-17T04:04:39.368Z,101192.94
2023-02-17T04:07:07.309Z,101179.78
2023-02-17T04:09:35.217Z,101197.69
2023-02-17T04:12:03.099Z,101192.47
2023-02-17T04:14:31.028Z,101186.34
2023-02-17T04:16:59.004Z,101181.13
2023-02-17T04:19:26.974Z,101189.09
2023-02-17T04:21:54.709Z,101190.97
2023-02-17T04:24:22.499Z,101183.00
2023-02-17T04:26:50.183Z,101191.03
2023-02-17T04:29:18.077Z,101197.28
2023-02-17T04:31:45.937Z,101187.56
2023-02-17T04:34:13.897Z,101202.72
2023-02-17T04:36:44.227Z,101201.00
2023-02-17T04:39:12.153Z,101194.75
2023-02-17T04:41:40.105Z,101195.72
2023-02-17T04:44:07.870Z,101206.31
2023-02-17T04:46:35.706Z,101209.84
2023-02-17T04:49:03.724Z,101206.34
2023-02-17T04:51:31.457Z,101210.72
2023-02-17T04:53:59.384Z,101207.25
2023-02-17T04:56:27.166Z,101212.41
2023-02-17T04:58:54.967Z,101212.38
2023-02-17T05:01:22.731Z,101207.91
2023-02-17T05:03:56.526Z,101207.00
2023-02-17T05:06:24.233Z,101209.53
2023-02-17T05:08:53.644Z,101206.78
2023-02-17T05:11:21.397Z,101218.25
2023-02-17T05:13:49.122Z,101204.13
2023-02-17T05:16:16.915Z,101213.69
2023-02-17T05:18:45.065Z,101216.09
2023-02-17T05:21:13.117Z,101210.75
2023-02-17T05:23:41.402Z,101209.69
2023-02-17T05:26:09.650Z,101200.00
2023-02-17T05:28:37.955Z,101211.50
2023-02-17T05:31:06.619Z,101217.69
2023-02-17T05:33:34.598Z,101216.84
2023-02-17T05:36:08.404Z,101214.94
2023-02-17T05:38:37.407Z,101210.03
2023-02-17T05:41:05.803Z,101211.81
2023-02-17T05:43:33.800Z,101211.81
2023-02-17T05:46:05.991Z,101212.69
2023-02-17T05:48:34.428Z,101217.19
2023-02-17T05:51:02.295Z,101227.88
2023-02-17T05:53:30.860Z,101239.53
2023-02-17T05:55:58.843Z,101233.34
2023-02-17T05:58:27.405Z,101237.81
2023-02-17T06:00:55.246Z,101236.13
2023-02-17T06:03:23.704Z,101236.22
2023-02-17T06:05:51.498Z,101241.50
2023-02-17T06:08:19.408Z,101232.75
2023-02-17T06:10:47.163Z,101251.28
2023-02-17T06:13:14.882Z,101245.03
2023-02-17T06:15:42.901Z,101235.28
2023-02-17T06:18:10.607Z,101254.78
2023-02-17T06:20:38.602Z,101238.66
2023-02-17T06:23:06.378Z,101240.59
2023-02-17T06:25:34.216Z,101251.28
2023-02-17T06:28:01.893Z,101245.78
2023-02-17T06:30:30.483Z,101239.56
2023-02-17T06:32:59.298Z,101245.75
2023-02-17T06:35:27.044Z,101236.09
2023-02-17T06:37:54.868Z,101250.97
2023-02-17T06:40:28.801Z,101269.66
2023-02-17T06:42:56.750Z,101254.56
2023-02-17T06:45:24.436Z,101262.66
2023-02-17T06:47:52.469Z,101260.78
2023-02-17T06:50:21.555Z,101259.78
2023-02-17T06:52:49.286Z,101263.44
2023-02-17T06:55:20.045Z,101272.19
2023-02-17T06:57:48.044Z,101274.00
2023-02-17T07:00:16.179Z,101274.84
2023-02-17T07:02:44.152Z,101275.75
2023-02-17T07:05:12.106Z,101276.59
2023-02-17T07:07:39.789Z,101259.84
2023-02-17T07:10:08.867Z,101270.19
2023-02-17T07:12:36.565Z,101274.84
2023-02-17T07:15:04.879Z,101280.81
2023-02-17T07:17:32.676Z,101278.13
2023-02-17T07:20:00.788Z,101276.16
2023-02-17T07:22:28.561Z,101284.94
2023-02-17T07:24:56.285Z,101285.81
2023-02-17T07:27:23.967Z,101278.69
2023-02-17T07:29:51.736Z,101291.00
2023-02-17T07:32:19.615Z,101293.66
2023-02-17T07:34:47.561Z,101302.44
2023-02-17T07:37:15.320Z,101312.19
2023-02-17T07:39:43.507Z,101314.06
2023-02-17T07:42:11.576Z,101320.25
2023-02-17T07:44:40.171Z,101320.25
2023-02-17T07:47:08.058Z,101313.25
2023-02-17T07:49:35.982Z,101323.94
2023-02-17T07:52:05.616Z,101315.91
2023-02-17T07:54:33.541Z,101321.25
2023-02-17T07:57:03.577Z,101315.19
2023-02-17T07:59:31.383Z,101328.41
2023-02-17T08:01:59.272Z,101335.56
2023-02-17T08:04:27.586Z,101328.56
2023-02-17T08:06:55.785Z,101327.63
2023-02-17T08:09:42.413Z,101310.84
2023-02-17T08:12:37.841Z,101305.44
2023-02-17T08:15:09.419Z,101321.53
2023-02-17T08:17:37.650Z,101309.25
2023-02-17T08:20:09.016Z,101304.72
2023-02-17T08:22:37.485Z,101289.69
2023-02-17T08:25:06.279Z,101290.47
2023-02-17T08:27:34.551Z,101284.19
2023-02-17T08:30:02.664Z,101284.94
2023-02-17T08:32:30.459Z,101285.78
2023-02-17T08:34:59.214Z,101286.56
2023-02-17T08:37:27.039Z,101283.13
2023-02-17T08:39:55.892Z,101290.97
2023-02-17T08:42:24.887Z,101287.31
2023-02-17T08:44:52.669Z,101291.72
2023-02-17T08:47:20.484Z,101281.22
2023-02-17T08:49:48.230Z,101293.53
2023-02-17T08:52:16.252Z,101280.16
2023-02-17T08:54:44.652Z,101288.09
2023-02-17T08:57:34.808Z,101287.38
2023-02-17T09:00:08.929Z,101286.38
2023-02-17T09:02:37.621Z,101305.97
2023-02-17T09:05:06.368Z,101314.72
2023-02-17T09:07:36.669Z,101308.56
2023-02-17T09:10:08.966Z,101311.03
2023-02-17T09:12:40.807Z,101336.91
2023-02-17T09:15:09.852Z,101342.31
2023-02-17T09:17:41.793Z,101350.44
2023-02-17T09:20:23.857Z,101357.69
2023-02-17T09:22:53.860Z,101357.69
2023-02-17T09:25:21.773Z,101355.22
2023-02-17T09:27:49.982Z,101347.09
2023-02-17T09:30:17.832Z,101337.28
2023-02-17T09:32:45.893Z,101349.72
2023-02-17T09:35:16.413Z,101339.09
2023-02-17T09:37:44.761Z,101332.03
2023-02-17T09:40:47.255Z,101330.22
2023-02-17T09:43:25.338Z,101332.03
2023-02-17T09:46:02.091Z,101345.31
2023-02-17T09:48:32.965Z,101336.44
2023-02-17T09:51:26.639Z,101336.16
2023-02-17T09:54:13.694Z,101344.91
2023-02-17T09:56:46.141Z,101344.84
2023-02-17T09:59:27.687Z,101344.00
2023-02-17T10:01:56.897Z,101352.94
2023-02-17T10:04:39.683Z,101336.84
2023-02-17T10:07:17.821Z,101329.63
2023-02-17T10:09:59.834Z,101344.63
2023-02-17T10:12:37.316Z,101341.94
2023-02-17T10:15:13.467Z,101344.31
2023-02-17T10:17:59.488Z,101324.69
2023-02-17T10:20:58.306Z,101320.16
2023-02-17T10:23:29.368Z,101310.09
2023-02-17T10:26:34.396Z,101296.41
2023-02-17T10:29:14.561Z,101296.19
2023-02-17T10:31:54.684Z,101303.94
2023-02-17T10:34:34.264Z,101302.75
2023-02-17T10:37:24.893Z,101315.81
2023-02-17T10:39:57.185Z,101314.72
2023-02-17T10:42:34.566Z,101308.19
2023-02-17T10:45:24.785Z,101310.47
2023-02-17T10:48:17.295Z,101304.97
2023-02-17T10:50:47.076Z,101313.66
2023-02-17T10:53:25.112Z,101314.97
2023-02-17T10:56:10.363Z,101320.94
2023-02-17T10:59:00.438Z,101320.78
2023-02-17T11:01:29.908Z,101307.41
2023-02-17T11:04:07.551Z,101302.31
2023-02-17T11:06:55.554Z,101306.63
2023-02-17T11:09:33.257Z,101301.00
2023-02-17T11:12:20.964Z,101306.91
2023-02-17T11:14:55.977Z,101315.53
2023-02-17T11:17:39.580Z,101312.06
2023-02-17T11:20:27.229Z,101314.41
2023-02-17T11:23:14.688Z,101317.59
2023-02-17T11:25:54.416Z,101316.72
2023-02-17T11:28:28.318Z,101314.88
2023-02-17T11:31:02.441Z,101314.75
2023-02-17T11:33:33.372Z,101316.66
2023-02-17T11:36:02.701Z,101311.50
2023-02-17T11:38:49.068Z,101305.22
2023-02-17T11:41:17.546Z,101314.91
2023-02-17T11:44:00.096Z,101322.97
2023-02-17T11:46:39.816Z,101330.13
2023-02-17T11:49:38.995Z,101321.75
2023-02-17T11:52:29.046Z,101325.44
2023-02-17T11:55:02.480Z,101314.84
2023-02-17T11:57:39.286Z,101321.13
2023-02-17T12:00:31.828Z,101318.56
2023-02-17T12:03:17.480Z,101311.53
2023-02-17T12:06:13.307Z,101297.25
2023-02-17T12:09:25.279Z,101296.69
2023-02-17T12:12:05.799Z,101286.03
2023-02-17T12:14:57.727Z,101293.94
2023-02-17T12:17:58.728Z,101289.41
2023-02-17T12:20:57.409Z,101284.78
2023-02-17T12:23:42.304Z,101290.97
2023-02-17T12:26:34.745Z,101295.81
2023-02-17T12:29:08.551Z,101292.09
2023-02-17T12:32:13.339Z,101300.13
2023-02-17T12:35:03.849Z,101274.34
2023-02-17T12:37:38.628Z,101277.75
2023-02-17T12:40:36.418Z,101291.38
2023-02-17T12:43:32.182Z,101276.88
2023-02-17T12:46:04.744Z,101274.09
2023-02-17T12:48:47.543Z,101273.72
2023-02-17T12:51:33.488Z,101263.94
2023-02-17T12:54:22.777Z,101272.06
2023-02-17T12:57:11.400Z,101269.50
2023-02-17T12:59:46.926Z,101248.16
2023-02-17T13:02:23.594Z,101266.88
2023-02-17T13:05:00.723Z,101275.19
2023-02-17T13:07:51.599Z,101271.44
2023-02-17T13:10:39.016Z,101270.69
2023-02-17T13:13:10.583Z,101292.16
2023-02-17T13:15:44.911Z,101284.75
2023-02-17T13:18:26.734Z,101281.63
2023-02-17T13:21:17.647Z,101284.91
2023-02-17T13:24:00.750Z,101272.19
2023-02-17T13:26:31.655Z,101267.50
2023-02-17T13:29:23.685Z,101275.25
2023-02-17T13:31:56.758Z,101265.38
2023-02-17T13:34:39.006Z,101273.28
2023-02-17T13:37:28.207Z,101275.25
2023-02-17T13:39:55.960Z,101261.34
2023-02-17T13:42:34.440Z,101273.47
2023-02-17T13:45:18.962Z,101260.88
2023-02-17T13:47:50.261Z,101250.41
2023-02-17T13:50:30.784Z,101266.06
2023-02-17T13:52:59.708Z,101257.38
2023-02-17T13:55:27.722Z,101243.56
2023-02-17T13:57:58.521Z,101247.94
2023-02-17T14:00:35.252Z,101236.19
2023-02-17T14:03:23.674Z,101226.50
2023-02-17T14:06:01.175Z,101237.34
2023-02-17T14:08:40.944Z,101229.97
2023-02-17T14:11:20.606Z,101229.84
2023-02-17T14:13:51.810Z,101237.97
2023-02-17T14:16:39.236Z,101253.84
2023-02-17T14:19:20.190Z,101246.88
2023-02-17T14:21:58.045Z,101257.75
2023-02-17T14:24:35.762Z,101249.81
2023-02-17T14:27:14.069Z,101250.75
2023-02-17T14:29:46.426Z,101243.91
2023-02-17T14:32:35.941Z,101237.50
2023-02-17T14:35:12.954Z,101249.13
2023-02-17T14:37:43.220Z,101235.00
2023-02-17T14:40:24.013Z,101231.31
2023-02-17T14:42:52.635Z,101238.47
2023-02-17T14:45:20.692Z,101221.63
2023-02-17T14:47:48.555Z,101233.03
2023-02-17T14:50:17.435Z,101231.22
2023-02-17T14:52:49.822Z,101219.63
2023-02-17T14:55:49.991Z,101209.53
2023-02-17T14:58:23.928Z,101222.88
2023-02-17T15:00:54.457Z,101203.41
2023-02-17T15:03:22.771Z,101220.19
2023-02-17T15:05:51.219Z,101199.94
2023-02-17T15:08:33.187Z,101207.84
2023-02-17T15:11:02.348Z,101206.28
2023-02-17T15:13:31.781Z,101217.03
2023-02-17T15:16:00.269Z,101229.63
2023-02-17T15:18:28.375Z,101227.00
2023-02-17T15:20:57.331Z,101221.72
2023-02-17T15:23:28.232Z,101226.00
2023-02-17T15:25:56.632Z,101222.59
2023-02-17T15:28:24.437Z,101233.03
2023-02-17T15:30:55.845Z,101219.63
2023-02-17T15:33:24.661Z,101230.13
2023-02-17T15:35:54.575Z,101224.59
2023-02-17T15:38:23.901Z,101234.25
2023-02-17T15:40:51.826Z,101220.06
2023-02-17T15:43:22.651Z,101223.41
2023-02-17T15:45:50.434Z,101217.59
2023-02-17T15:48:26.278Z,101232.38
2023-02-17T15:50:54.228Z,101222.78
2023-02-17T15:53:22.718Z,101227.19
2023-02-17T15:55:52.105Z,101229.88
2023-02-17T15:58:22.644Z,101218.44
2023-02-17T16:00:51.254Z,101219.59
2023-02-17T16:03:19.228Z,101223.03
2023-02-17T16:05:47.860Z,101228.41
2023-02-17T16:08:15.653Z,101232.06
2023-02-17T16:10:45.495Z,101223.34
2023-02-17T16:13:16.409Z,101239.25
2023-02-17T16:15:45.963Z,101243.09
2023-02-17T16:18:23.611Z,101225.38
2023-02-17T16:20:52.474Z,101232.63
2023-02-17T16:23:20.478Z,101240.69
2023-02-17T16:25:50.046Z,101254.13
2023-02-17T16:28:21.544Z,101255.75
2023-02-17T16:30:49.848Z,101252.31
2023-02-17T16:33:19.237Z,101264.75
2023-02-17T16:35:50.644Z,101268.41
2023-02-17T16:38:23.578Z,101275.53
2023-02-17T16:40:53.369Z,101268.41
2023-02-17T16:43:26.826Z,101264.81
2023-02-17T16:46:01.926Z,101257.69
2023-02-17T16:48:34.081Z,101244.22
2023-02-17T16:51:02.328Z,101233.81
2023-02-17T16:53:30.148Z,101236.19
2023-02-17T16:55:57.978Z,101248.47
2023-02-17T16:58:26.789Z,101250.19
2023-02-17T17:00:55.937Z,101260.94
2023-02-17T17:03:23.930Z,101274.25
2023-02-17T17:05:52.727Z,101255.47
2023-02-17T17:08:21.945Z,101261.00
2023-02-17T17:10:50.245Z,101277.81
2023-02-17T17:13:18.072Z,101277.13
2023-02-17T17:15:46.484Z,101281.69
2023-02-17T17:18:21.125Z,101294.84
2023-02-17T17:20:49.887Z,101279.09
2023-02-17T17:23:19.003Z,101293.34
2023-02-17T17:25:48.558Z,101296.34
2023-02-17T17:28:19.468Z,101296.59
2023-02-17T17:30:48.179Z,101310.50
2023-02-17T17:33:16.445Z,101316.06
2023-02-17T17:35:44.132Z,101312.06
2023-02-17T17:38:16.339Z,101324.41
2023-02-17T17:40:53.315Z,101320.16
2023-02-17T17:43:23.519Z,101322.94
2023-02-17T17:45:52.151Z,101325.03
2023-02-17T17:48:20.039Z,101324.28
2023-02-17T17:50:49.827Z,101335.75
2023-02-17T17:53:18.273Z,101341.06
2023-02-17T17:55:47.951Z,101337.69
2023-02-17T17:58:17.141Z,101352.06
2023-02-17T18:00:45.368Z,101358.41
2023-02-17T18:03:13.139Z,101361.34
2023-02-17T18:05:40.874Z,101352.53
2023-02-17T18:08:10.139Z,101351.59
2023-02-17T18:10:40.342Z,101357.81
2023-02-17T18:13:10.359Z,101360.50
2023-02-17T18:15:38.388Z,101381.03
2023-02-17T18:18:07.001Z,101386.34
2023-02-17T18:20:34.912Z,101356.22
2023-02-17T18:23:03.281Z,101376.50
2023-02-17T18:25:31.325Z,101381.03
2023-02-17T18:27:59.371Z,101365.31
2023-02-17T18:30:27.409Z,101374.97
2023-02-17T18:32:55.541Z,101372.56
2023-02-17T18:35:23.278Z,101375.22
2023-02-17T18:37:51.012Z,101381.44
2023-02-17T18:40:20.511Z,101374.38
2023-02-17T18:42:48.458Z,101373.59
2023-02-17T18:45:16.917Z,101373.66
2023-02-17T18:47:47.081Z,101391.66
2023-02-17T18:50:16.401Z,101404.94
2023-02-17T18:52:44.839Z,101421.09
2023-02-17T18:55:13.669Z,101413.94
2023-02-17T18:57:42.156Z,101413.22
2023-02-17T19:00:12.986Z,101423.84
2023-02-17T19:02:41.591Z,101422.41
2023-02-17T19:05:11.697Z,101412.34
2023-02-17T19:07:39.651Z,101404.59
2023-02-17T19:10:08.344Z,101400.22
2023-02-17T19:12:37.922Z,101426.81
2023-02-17T19:15:07.452Z,101417.97
2023-02-17T19:17:35.664Z,101423.38
2023-02-17T19:20:04.318Z,101414.56
2023-02-17T19:22:38.702Z,101421.72
2023-02-17T19:25:08.204Z,101431.47
2023-02-17T19:27:39.599Z,101428.06
2023-02-17T19:30:11.396Z,101427.19
2023-02-17T19:32:40.524Z,101424.44
2023-02-17T19:35:11.499Z,101417.22
2023-02-17T19:37:39.532Z,101409.53
2023-02-17T19:40:08.172Z,101408.66
2023-02-17T19:42:37.161Z,101412.97
2023-02-17T19:45:06.087Z,101409.38
2023-02-17T19:47:33.779Z,101418.94
2023-02-17T19:50:01.469Z,101418.88
2023-02-17T19:52:29.220Z,101426.91
2023-02-17T19:54:56.975Z,101414.78
2023-02-17T19:57:24.747Z,101420.91
2023-02-17T19:59:53.259Z,101425.22
2023-02-17T20:02:21.080Z,101412.81
2023-02-17T20:04:49.068Z,101426.00
2023-02-17T20:07:16.826Z,101435.72
2023-02-17T20:09:44.651Z,101432.97
2023-02-17T20:12:12.526Z,101436.50
2023-02-17T20:14:42.054Z,101434.53
2023-02-17T20:17:09.785Z,101434.56
2023-02-17T20:19:39.367Z,101430.88
2023-02-17T20:22:08.578Z,101448.81
2023-02-17T20:24:37.855Z,101440.78
2023-02-17T20:27:05.763Z,101438.09
2023-02-17T20:29:35.402Z,101416.84
2023-02-17T20:32:03.714Z,101426.81
2023-02-17T20:34:37.412Z,101427.53
2023-02-17T20:37:07.231Z,101431.81
2023-02-17T20:39:36.196Z,101440.72
2023-02-17T20:42:05.333Z,101428.25
2023-02-17T20:44:34.045Z,101428.25
2023-02-17T20:47:02.501Z,101425.56
2023-02-17T20:49:30.371Z,101422.97
2023-02-17T20:51:58.258Z,101428.13
2023-02-17T20:54:47.436Z,101430.75
2023-02-17T20:57:15.319Z,101432.56
2023-02-17T20:59:43.129Z,101434.38
2023-02-17T21:02:11.499Z,101433.44
2023-02-17T21:04:39.268Z,101438.75
2023-02-17T21:07:07.156Z,101435.16
2023-02-17T21:09:35.116Z,101432.41
2023-02-17T21:12:03.623Z,101418.06
2023-02-17T21:14:31.789Z,101421.69
2023-02-17T21:17:00.008Z,101410.28
2023-02-17T21:19:29.598Z,101425.38
2023-02-17T21:21:57.724Z,101421.91
2023-02-17T21:24:25.609Z,101408.59
2023-02-17T21:26:53.555Z,101406.78
2023-02-17T21:29:21.383Z,101412.00
2023-02-17T21:31:49.498Z,101407.53
2023-02-17T21:34:17.338Z,101424.47
2023-02-17T21:36:45.520Z,101408.41
2023-02-17T21:39:13.413Z,101418.91
2023-02-17T21:41:43.908Z,101417.13
2023-02-17T21:44:31.294Z,101418.91
2023-02-17T21:47:02.184Z,101421.91
2023-02-17T21:49:29.996Z,101416.34
2023-02-17T21:51:57.972Z,101424.28
2023-02-17T21:54:25.688Z,101414.44
2023-02-17T21:56:53.478Z,101402.78
2023-02-17T21:59:22.357Z,101405.31
2023-02-17T22:01:51.919Z,101406.19
2023-02-17T22:04:20.670Z,101415.09
2023-02-17T22:06:48.423Z,101406.19
2023-02-17T22:09:18.106Z,101415.91
2023-02-17T22:11:47.130Z,101408.84
2023-02-17T22:14:19.236Z,101416.81
2023-02-17T22:16:48.228Z,101412.41
2023-02-17T22:19:20.860Z,101409.63
2023-02-17T22:21:50.195Z,101416.78
2023-02-17T22:24:23.048Z,101410.66
2023-02-17T22:26:51.075Z,101423.03
2023-02-17T22:29:18.924Z,101408.84
2023-02-17T22:31:47.733Z,101412.31
2023-02-17T22:34:16.589Z,101409.66
2023-02-17T22:36:44.509Z,101413.19
2023-02-17T22:39:12.479Z,101400.66
2023-02-17T22:41:40.875Z,101413.19
2023-02-17T22:44:08.967Z,101409.56
2023-02-17T22:46:36.803Z,101400.59
2023-02-17T22:49:05.418Z,101405.94
2023-02-17T22:51:38.650Z,101403.97
2023-02-17T22:54:08.189Z,101403.25
2023-02-17T22:56:36.681Z,101398.69
2023-02-17T22:59:05.559Z,101392.53
2023-02-17T23:01:36.418Z,101400.44
2023-02-17T23:04:05.854Z,101396.94
2023-02-17T23:06:37.527Z,101393.25
2023-02-17T23:09:07.290Z,101387.69
2023-02-17T23:11:52.330Z,101399.06
2023-02-17T23:14:23.876Z,101391.84
2023-02-17T23:16:53.349Z,101403.94
2023-02-17T23:19:23.357Z,101408.75
2023-02-17T23:21:55.805Z,101411.31
2023-02-17T23:24:25.420Z,101396.25
2023-02-17T23:26:55.357Z,101407.53
2023-02-17T23:29:23.897Z,101389.94
2023-02-17T23:31:52.273Z,101395.06
2023-02-17T23:34:20.481Z,101390.56
2023-02-17T23:36:48.641Z,101391.38
2023-02-17T23:39:17.115Z,101381.53
2023-02-17T23:41:44.941Z,101385.91
2023-02-17T23:44:14.584Z,101374.25
2023-02-17T23:46:44.583Z,101388.41
2023-02-17T23:49:17.268Z,101387.41
2023-02-17T23:51:46.839Z,101367.03
2023-02-17T23:54:15.789Z,101379.38
2023-02-17T23:56:43.907Z,101365.97
2023-02-17T23:59:11.945Z,101374.03
